sensor_id;sensor_type;location;lat;lon;timestamp;pressure;altitude;pressure_sealevel;temperature;humidity
48204;BME280;33994;50.998;5.864;2024-03-02T00:03:00;99418.94;;;8.48;72.01
48204;BME280;33994;50.998;5.864;2024-03-02T00:06:04;99399.81;;;8.49;71.92
48204;BME280;33994;50.998;5.864;2024-03-02T00:09:09;99401.56;;;8.49;71.89
48204;BME280;33994;50.998;5.864;2024-03-02T00:12:15;99412.75;;;8.52;71.96
48204;BME280;33994;50.998;5.864;2024-03-02T00:15:39;99406.75;;;8.50;71.67
48204;BME280;33994;50.998;5.864;2024-03-02T00:18:44;99404.94;;;8.52;71.90
48204;BME280;33994;50.998;5.864;2024-03-02T00:21:47;99410.16;;;8.52;71.95
48204;BME280;33994;50.998;5.864;2024-03-02T00:24:50;99406.63;;;8.53;71.99
48204;BME280;33994;50.998;5.864;2024-03-02T00:27:54;99408.38;;;8.55;72.04
48204;BME280;33994;50.998;5.864;2024-03-02T00:30:59;99404.84;;;8.56;72.11
48204;BME280;33994;50.998;5.864;2024-03-02T00:34:04;99414.38;;;8.57;72.05
48204;BME280;33994;50.998;5.864;2024-03-02T00:37:09;99396.97;;;8.57;71.99
48204;BME280;33994;50.998;5.864;2024-03-02T00:40:12;99400.44;;;8.58;72.24
48204;BME280;33994;50.998;5.864;2024-03-02T00:43:43;99413.47;;;8.58;72.14
48204;BME280;33994;50.998;5.864;2024-03-02T00:46:48;99416.91;;;8.60;72.43
48204;BME280;33994;50.998;5.864;2024-03-02T00:49:53;99418.59;;;8.61;72.40
48204;BME280;33994;50.998;5.864;2024-03-02T00:52:56;99430.75;;;8.62;72.55
48204;BME280;33994;50.998;5.864;2024-03-02T00:55:59;99437.66;;;8.63;72.62
48204;BME280;33994;50.998;5.864;2024-03-02T00:59:04;99445.41;;;8.64;72.75
48204;BME280;33994;50.998;5.864;2024-03-02T01:02:07;99451.47;;;8.65;72.92
48204;BME280;33994;50.998;5.864;2024-03-02T01:05:11;99467.13;;;8.65;72.86
48204;BME280;33994;50.998;5.864;2024-03-02T01:08:15;99481.00;;;8.65;73.26
48204;BME280;33994;50.998;5.864;2024-03-02T01:11:18;99488.88;;;8.64;74.62
48204;BME280;33994;50.998;5.864;2024-03-02T01:14:22;99514.16;;;8.60;77.64
48204;BME280;33994;50.998;5.864;2024-03-02T01:17:25;99523.09;;;8.51;80.36
48204;BME280;33994;50.998;5.864;2024-03-02T01:20:29;99517.31;;;8.40;82.66
48204;BME280;33994;50.998;5.864;2024-03-02T01:23:32;99525.47;;;8.28;84.72
48204;BME280;33994;50.998;5.864;2024-03-02T01:26:36;99533.63;;;8.14;86.14
48204;BME280;33994;50.998;5.864;2024-03-02T01:29:39;99529.53;;;8.06;87.58
48204;BME280;33994;50.998;5.864;2024-03-02T01:32:42;99534.94;;;7.96;88.97
48204;BME280;33994;50.998;5.864;2024-03-02T01:35:46;99528.19;;;7.89;90.13
48204;BME280;33994;50.998;5.864;2024-03-02T01:38:49;99524.84;;;7.84;90.87
48204;BME280;33994;50.998;5.864;2024-03-02T01:41:53;99528.44;;;7.78;91.58
48204;BME280;33994;50.998;5.864;2024-03-02T01:44:56;99520.84;;;7.69;92.14
48204;BME280;33994;50.998;5.864;2024-03-02T01:47:59;99525.25;;;7.66;92.79
48204;BME280;33994;50.998;5.864;2024-03-02T01:51:04;99527.97;;;7.61;93.22
48204;BME280;33994;50.998;5.864;2024-03-02T01:54:07;99530.63;;;7.60;92.13
48204;BME280;33994;50.998;5.864;2024-03-02T01:57:10;99525.53;;;7.55;91.28
48204;BME280;33994;50.998;5.864;2024-03-02T02:00:14;99529.06;;;7.52;91.03
48204;BME280;33994;50.998;5.864;2024-03-02T02:03:18;99535.22;;;7.48;90.70
48204;BME280;33994;50.998;5.864;2024-03-02T02:06:22;99537.97;;;7.42;90.63
48204;BME280;33994;50.998;5.864;2024-03-02T02:09:25;99531.97;;;7.39;90.55
48204;BME280;33994;50.998;5.864;2024-03-02T02:12:29;99526.84;;;7.34;90.52
48204;BME280;33994;50.998;5.864;2024-03-02T02:15:32;99532.19;;;7.28;90.76
48204;BME280;33994;50.998;5.864;2024-03-02T02:18:35;99524.50;;;7.22;91.07
48204;BME280;33994;50.998;5.864;2024-03-02T02:21:42;99522.94;;;7.15;91.38
48204;BME280;33994;50.998;5.864;2024-03-02T02:24:45;99512.75;;;7.05;91.65
48204;BME280;33994;50.998;5.864;2024-03-02T02:27:48;99511.06;;;7.03;91.91
48204;BME280;33994;50.998;5.864;2024-03-02T02:30:51;99512.81;;;7.02;92.22
48204;BME280;33994;50.998;5.864;2024-03-02T02:33:54;99503.38;;;6.97;92.27
48204;BME280;33994;50.998;5.864;2024-03-02T02:36:59;99496.59;;;6.90;92.84
48204;BME280;33994;50.998;5.864;2024-03-02T02:40:02;99504.44;;;6.88;92.42
48204;BME280;33994;50.998;5.864;2024-03-02T02:43:05;99501.88;;;6.85;92.49
48204;BME280;33994;50.998;5.864;2024-03-02T02:46:09;99487.19;;;6.84;92.83
48204;BME280;33994;50.998;5.864;2024-03-02T02:49:12;99482.06;;;6.81;92.73
48204;BME280;33994;50.998;5.864;2024-03-02T02:52:17;99479.34;;;6.86;92.88
48204;BME280;33994;50.998;5.864;2024-03-02T02:55:20;99488.91;;;6.85;92.17
48204;BME280;33994;50.998;5.864;2024-03-02T02:58:23;99473.34;;;6.82;92.08
48204;BME280;33994;50.998;5.864;2024-03-02T03:01:26;99476.00;;;6.80;91.95
48204;BME280;33994;50.998;5.864;2024-03-02T03:04:29;99472.50;;;6.81;91.79
48204;BME280;33994;50.998;5.864;2024-03-02T03:07:34;99483.00;;;6.78;91.78
48204;BME280;33994;50.998;5.864;2024-03-02T03:10:37;99502.06;;;6.77;92.05
48204;BME280;33994;50.998;5.864;2024-03-02T03:13:40;99504.66;;;6.77;92.52
48204;BME280;33994;50.998;5.864;2024-03-02T03:16:45;99496.06;;;6.74;92.94
48204;BME280;33994;50.998;5.864;2024-03-02T03:19:48;99498.59;;;6.78;92.73
48204;BME280;33994;50.998;5.864;2024-03-02T03:22:53;99489.09;;;6.76;93.23
48204;BME280;33994;50.998;5.864;2024-03-02T03:25:56;99496.03;;;6.75;93.01
48204;BME280;33994;50.998;5.864;2024-03-02T03:28:59;99488.19;;;6.78;93.19
48204;BME280;33994;50.998;5.864;2024-03-02T03:32:02;99496.84;;;6.77;93.23
48204;BME280;33994;50.998;5.864;2024-03-02T03:35:06;99489.09;;;6.76;93.41
48204;BME280;33994;50.998;5.864;2024-03-02T03:38:11;99480.41;;;6.77;93.55
48204;BME280;33994;50.998;5.864;2024-03-02T03:41:15;99483.91;;;6.76;93.40
48204;BME280;33994;50.998;5.864;2024-03-02T03:44:18;99481.38;;;6.73;93.80
48204;BME280;33994;50.998;5.864;2024-03-02T03:47:21;99486.59;;;6.71;94.26
48204;BME280;33994;50.998;5.864;2024-03-02T03:50:25;99490.94;;;6.71;94.52
48204;BME280;33994;50.998;5.864;2024-03-02T03:53:29;99495.31;;;6.69;94.67
48204;BME280;33994;50.998;5.864;2024-03-02T03:56:32;99495.25;;;6.70;94.38
48204;BME280;33994;50.998;5.864;2024-03-02T03:59:35;99497.00;;;6.70;94.61
48204;BME280;33994;50.998;5.864;2024-03-02T04:02:39;99499.59;;;6.70;94.99
48204;BME280;33994;50.998;5.864;2024-03-02T04:05:42;99507.41;;;6.70;95.04
48204;BME280;33994;50.998;5.864;2024-03-02T04:08:46;99500.47;;;6.70;95.03
48204;BME280;33994;50.998;5.864;2024-03-02T04:11:49;99488.34;;;6.71;95.16
48204;BME280;33994;50.998;5.864;2024-03-02T04:14:52;99494.41;;;6.71;95.19
48204;BME280;33994;50.998;5.864;2024-03-02T04:17:56;99509.13;;;6.71;95.05
48204;BME280;33994;50.998;5.864;2024-03-02T04:20:59;99505.66;;;6.70;95.12
48204;BME280;33994;50.998;5.864;2024-03-02T04:24:04;99505.66;;;6.70;95.26
48204;BME280;33994;50.998;5.864;2024-03-02T04:27:08;99498.75;;;6.71;95.24
48204;BME280;33994;50.998;5.864;2024-03-02T04:30:11;99497.91;;;6.69;95.38
48204;BME280;33994;50.998;5.864;2024-03-02T04:33:14;99496.16;;;6.71;95.28
48204;BME280;33994;50.998;5.864;2024-03-02T04:36:18;99491.00;;;6.66;95.29
48204;BME280;33994;50.998;5.864;2024-03-02T04:39:22;99490.09;;;6.69;95.22
48204;BME280;33994;50.998;5.864;2024-03-02T04:42:25;99491.84;;;6.68;94.98
48204;BME280;33994;50.998;5.864;2024-03-02T04:45:28;99498.81;;;6.68;94.26
48204;BME280;33994;50.998;5.864;2024-03-02T04:48:32;99491.81;;;6.70;93.96
48204;BME280;33994;50.998;5.864;2024-03-02T04:51:35;99503.03;;;6.72;93.51
48204;BME280;33994;50.998;5.864;2024-03-02T04:54:39;99497.00;;;6.70;93.36
48204;BME280;33994;50.998;5.864;2024-03-02T04:57:43;99497.84;;;6.72;93.14
48204;BME280;33994;50.998;5.864;2024-03-02T05:00:46;99508.25;;;6.72;92.78
48204;BME280;33994;50.998;5.864;2024-03-02T05:03:50;99503.94;;;6.71;92.72
48204;BME280;33994;50.998;5.864;2024-03-02T05:06:53;99510.78;;;6.73;92.06
48204;BME280;33994;50.998;5.864;2024-03-02T05:09:57;99506.53;;;6.71;91.89
48204;BME280;33994;50.998;5.864;2024-03-02T05:13:00;99515.19;;;6.71;92.03
48204;BME280;33994;50.998;5.864;2024-03-02T05:16:04;99518.69;;;6.69;92.04
48204;BME280;33994;50.998;5.864;2024-03-02T05:19:07;99534.22;;;6.72;91.79
48204;BME280;33994;50.998;5.864;2024-03-02T05:22:10;99532.53;;;6.71;91.73
48204;BME280;33994;50.998;5.864;2024-03-02T05:25:15;99521.22;;;6.72;91.82
48204;BME280;33994;50.998;5.864;2024-03-02T05:28:18;99527.31;;;6.71;91.78
48204;BME280;33994;50.998;5.864;2024-03-02T05:31:21;99527.31;;;6.71;91.96
48204;BME280;33994;50.998;5.864;2024-03-02T05:34:24;99518.63;;;6.72;91.89
48204;BME280;33994;50.998;5.864;2024-03-02T05:37:27;99522.94;;;6.73;91.50
48204;BME280;33994;50.998;5.864;2024-03-02T05:40:32;99520.38;;;6.71;91.33
48204;BME280;33994;50.998;5.864;2024-03-02T05:43:35;99532.53;;;6.71;91.30
48204;BME280;33994;50.998;5.864;2024-03-02T05:46:38;99527.31;;;6.71;91.07
48204;BME280;33994;50.998;5.864;2024-03-02T05:49:41;99538.47;;;6.74;90.57
48204;BME280;33994;50.998;5.864;2024-03-02T05:52:45;99539.28;;;6.78;90.52
48204;BME280;33994;50.998;5.864;2024-03-02T05:55:49;99536.66;;;6.79;90.05
48204;BME280;33994;50.998;5.864;2024-03-02T05:58:52;99552.22;;;6.82;89.61
48204;BME280;33994;50.998;5.864;2024-03-02T06:01:55;99552.22;;;6.82;89.26
48204;BME280;33994;50.998;5.864;2024-03-02T06:04:58;99560.00;;;6.82;89.23
48204;BME280;33994;50.998;5.864;2024-03-02T06:08:02;99558.25;;;6.83;89.16
48204;BME280;33994;50.998;5.864;2024-03-02T06:11:07;99560.84;;;6.83;88.88
48204;BME280;33994;50.998;5.864;2024-03-02T06:14:10;99564.25;;;6.85;88.68
48204;BME280;33994;50.998;5.864;2024-03-02T06:17:13;99563.47;;;6.83;88.57
48204;BME280;33994;50.998;5.864;2024-03-02T06:20:16;99566.91;;;6.82;88.12
48204;BME280;33994;50.998;5.864;2024-03-02T06:23:19;99570.41;;;6.82;87.97
48204;BME280;33994;50.998;5.864;2024-03-02T06:26:24;99570.34;;;6.84;87.84
48204;BME280;33994;50.998;5.864;2024-03-02T06:29:27;99575.50;;;6.87;87.66
48204;BME280;33994;50.998;5.864;2024-03-02T06:32:30;99581.59;;;6.86;87.72
48204;BME280;33994;50.998;5.864;2024-03-02T06:35:33;99584.25;;;6.83;87.45
48204;BME280;33994;50.998;5.864;2024-03-02T06:38:37;99593.81;;;6.81;87.56
48204;BME280;33994;50.998;5.864;2024-03-02T06:41:41;99587.78;;;6.79;87.19
48204;BME280;33994;50.998;5.864;2024-03-02T06:44:44;99593.09;;;6.73;86.97
48204;BME280;33994;50.998;5.864;2024-03-02T06:47:47;99606.19;;;6.68;86.94
48204;BME280;33994;50.998;5.864;2024-03-02T06:50:50;99600.19;;;6.65;87.17
48204;BME280;33994;50.998;5.864;2024-03-02T06:53:54;99611.47;;;6.62;87.31
48204;BME280;33994;50.998;5.864;2024-03-02T06:56:58;99606.38;;;6.57;87.45
48204;BME280;33994;50.998;5.864;2024-03-02T07:00:01;99622.03;;;6.53;87.71
48204;BME280;33994;50.998;5.864;2024-03-02T07:03:04;99617.75;;;6.50;87.64
48204;BME280;33994;50.998;5.864;2024-03-02T07:06:08;99613.47;;;6.48;87.70
48204;BME280;33994;50.998;5.864;2024-03-02T07:09:11;99617.78;;;6.47;87.92
48204;BME280;33994;50.998;5.864;2024-03-02T07:12:15;99617.88;;;6.44;87.75
48204;BME280;33994;50.998;5.864;2024-03-02T07:15:19;99620.38;;;6.49;87.88
48204;BME280;33994;50.998;5.864;2024-03-02T07:18:22;99620.22;;;6.58;88.00
48204;BME280;33994;50.998;5.864;2024-03-02T07:21:25;99622.63;;;6.69;87.56
48204;BME280;33994;50.998;5.864;2024-03-02T07:24:28;99632.78;;;6.81;86.93
48204;BME280;33994;50.998;5.864;2024-03-02T07:27:33;99631.69;;;6.94;86.85
48204;BME280;33994;50.998;5.864;2024-03-02T07:30:36;99628.03;;;7.03;86.33
48204;BME280;33994;50.998;5.864;2024-03-02T07:33:39;99633.94;;;7.11;85.90
48204;BME280;33994;50.998;5.864;2024-03-02T07:36:42;99636.41;;;7.19;85.22
48204;BME280;33994;50.998;5.864;2024-03-02T07:39:46;99629.34;;;7.25;85.22
48204;BME280;33994;50.998;5.864;2024-03-02T07:42:51;99629.97;;;7.35;84.90
48204;BME280;33994;50.998;5.864;2024-03-02T07:45:54;99635.03;;;7.44;85.02
48204;BME280;33994;50.998;5.864;2024-03-02T07:48:57;99637.47;;;7.52;84.53
48204;BME280;33994;50.998;5.864;2024-03-02T07:52:00;99643.47;;;7.56;83.79
48204;BME280;33994;50.998;5.864;2024-03-02T07:55:04;99626.91;;;7.60;83.59
48204;BME280;33994;50.998;5.864;2024-03-02T07:58:08;99634.66;;;7.63;83.26
48204;BME280;33994;50.998;5.864;2024-03-02T08:01:12;99638.06;;;7.65;83.51
48204;BME280;33994;50.998;5.864;2024-03-02T08:04:15;99628.50;;;7.65;82.94
48204;BME280;33994;50.998;5.864;2024-03-02T08:07:18;99636.41;;;7.61;82.81
48204;BME280;33994;50.998;5.864;2024-03-02T08:10:21;99639.97;;;7.57;82.61
48204;BME280;33994;50.998;5.864;2024-03-02T08:13:26;99645.25;;;7.53;82.70
48204;BME280;33994;50.998;5.864;2024-03-02T08:16:29;99636.63;;;7.51;82.99
48204;BME280;33994;50.998;5.864;2024-03-02T08:19:32;99633.97;;;7.53;82.93
48204;BME280;33994;50.998;5.864;2024-03-02T08:22:35;99635.69;;;7.56;82.91
48204;BME280;33994;50.998;5.864;2024-03-02T08:25:39;99634.72;;;7.58;82.91
48204;BME280;33994;50.998;5.864;2024-03-02T08:28:43;99629.50;;;7.60;82.92
48204;BME280;33994;50.998;5.864;2024-03-02T08:31:46;99633.78;;;7.62;82.81
48204;BME280;33994;50.998;5.864;2024-03-02T08:34:50;99626.84;;;7.63;82.56
48204;BME280;33994;50.998;5.864;2024-03-02T08:37:53;99629.47;;;7.61;81.94
48204;BME280;33994;50.998;5.864;2024-03-02T08:40:56;99636.38;;;7.62;82.22
48204;BME280;33994;50.998;5.864;2024-03-02T08:44:01;99644.97;;;7.66;81.93
48204;BME280;33994;50.998;5.864;2024-03-02T08:47:04;99638.81;;;7.70;81.78
48204;BME280;33994;50.998;5.864;2024-03-02T08:50:08;99641.28;;;7.76;81.99
48204;BME280;33994;50.998;5.864;2024-03-02T08:53:11;99639.41;;;7.83;81.70
48204;BME280;33994;50.998;5.864;2024-03-02T08:56:14;99639.31;;;7.87;81.30
48204;BME280;33994;50.998;5.864;2024-03-02T08:59:18;99622.78;;;7.90;80.66
48204;BME280;33994;50.998;5.864;2024-03-02T09:02:22;99625.31;;;7.91;80.07
48204;BME280;33994;50.998;5.864;2024-03-02T09:05:25;99629.56;;;7.95;79.88
48204;BME280;33994;50.998;5.864;2024-03-02T09:08:28;99632.03;;;8.01;79.59
48204;BME280;33994;50.998;5.864;2024-03-02T09:11:31;99628.47;;;8.06;79.10
48204;BME280;33994;50.998;5.864;2024-03-02T09:14:36;99634.47;;;8.09;78.91
48204;BME280;33994;50.998;5.864;2024-03-02T09:17:40;99631.69;;;8.17;78.81
48204;BME280;33994;50.998;5.864;2024-03-02T09:20:43;99638.44;;;8.24;77.96
48204;BME280;33994;50.998;5.864;2024-03-02T09:23:46;99638.34;;;8.28;77.61
48204;BME280;33994;50.998;5.864;2024-03-02T09:26:49;99636.44;;;8.35;77.39
48204;BME280;33994;50.998;5.864;2024-03-02T09:29:54;99625.91;;;8.40;76.02
48204;BME280;33994;50.998;5.864;2024-03-02T09:32:57;99634.56;;;8.40;75.26
48204;BME280;33994;50.998;5.864;2024-03-02T09:36:00;99642.25;;;8.45;75.32
48204;BME280;33994;50.998;5.864;2024-03-02T09:39:03;99647.41;;;8.48;75.06
48204;BME280;33994;50.998;5.864;2024-03-02T09:42:07;99644.69;;;8.52;74.98
48204;BME280;33994;50.998;5.864;2024-03-02T09:45:11;99645.38;;;8.59;74.47
48204;BME280;33994;50.998;5.864;2024-03-02T09:48:14;99630.53;;;8.63;74.24
48204;BME280;33994;50.998;5.864;2024-03-02T09:51:18;99634.72;;;8.68;74.06
48204;BME280;33994;50.998;5.864;2024-03-02T09:54:22;99627.66;;;8.72;73.42
48204;BME280;33994;50.998;5.864;2024-03-02T09:57:25;99619.78;;;8.75;73.33
48204;BME280;33994;50.998;5.864;2024-03-02T10:00:30;99629.06;;;8.85;73.62
48204;BME280;33994;50.998;5.864;2024-03-02T10:03:33;99627.13;;;8.92;73.46
48204;BME280;33994;50.998;5.864;2024-03-02T10:06:37;99620.06;;;8.97;73.42
48204;BME280;33994;50.998;5.864;2024-03-02T10:09:40;99619.00;;;9.02;72.97
48204;BME280;33994;50.998;5.864;2024-03-02T10:12:43;99618.84;;;9.09;72.29
48204;BME280;33994;50.998;5.864;2024-03-02T10:15:48;99610.13;;;9.10;71.34
48204;BME280;33994;50.998;5.864;2024-03-02T10:18:51;99596.94;;;9.16;71.34
48204;BME280;33994;50.998;5.864;2024-03-02T10:21:54;99602.94;;;9.18;70.18
48204;BME280;33994;50.998;5.864;2024-03-02T10:24:58;99603.69;;;9.21;70.14
48204;BME280;33994;50.998;5.864;2024-03-02T10:28:01;99594.94;;;9.24;69.96
48204;BME280;33994;50.998;5.864;2024-03-02T10:31:06;99605.34;;;9.25;69.59
48204;BME280;33994;50.998;5.864;2024-03-02T10:34:10;99602.59;;;9.30;69.60
48204;BME280;33994;50.998;5.864;2024-03-02T10:37:14;99592.09;;;9.33;69.61
48204;BME280;33994;50.998;5.864;2024-03-02T10:40:18;99581.66;;;9.33;69.45
48204;BME280;33994;50.998;5.864;2024-03-02T10:43:24;99579.88;;;9.35;69.36
48204;BME280;33994;50.998;5.864;2024-03-02T10:46:30;99573.66;;;9.39;69.10
48204;BME280;33994;50.998;5.864;2024-03-02T10:49:33;99577.78;;;9.46;69.14
48204;BME280;33994;50.998;5.864;2024-03-02T10:52:36;99576.72;;;9.52;68.57
48204;BME280;33994;50.998;5.864;2024-03-02T10:55:40;99573.94;;;9.58;68.41
48204;BME280;33994;50.998;5.864;2024-03-02T10:58:43;99583.41;;;9.62;67.30
48204;BME280;33994;50.998;5.864;2024-03-02T11:01:48;99572.00;;;9.65;66.81
48204;BME280;33994;50.998;5.864;2024-03-02T11:04:55;99571.09;;;9.66;65.90
48204;BME280;33994;50.998;5.864;2024-03-02T11:08:01;99566.66;;;9.68;66.65
48204;BME280;33994;50.998;5.864;2024-03-02T11:11:07;99566.59;;;9.71;66.83
48204;BME280;33994;50.998;5.864;2024-03-02T11:14:13;99566.34;;;9.79;67.19
48204;BME280;33994;50.998;5.864;2024-03-02T11:17:19;99574.00;;;9.85;67.08
48204;BME280;33994;50.998;5.864;2024-03-02T11:20:22;99561.53;;;9.93;66.42
48204;BME280;33994;50.998;5.864;2024-03-02T11:23:31;99557.06;;;9.96;65.19
48204;BME280;33994;50.998;5.864;2024-03-02T11:26:38;99568.22;;;10.02;63.96
48204;BME280;33994;50.998;5.864;2024-03-02T11:29:44;99564.59;;;10.06;63.47
48204;BME280;33994;50.998;5.864;2024-03-02T11:32:55;99554.13;;;10.07;62.78
48204;BME280;33994;50.998;5.864;2024-03-02T11:36:00;99541.91;;;10.08;63.35
48204;BME280;33994;50.998;5.864;2024-03-02T11:39:04;99541.00;;;10.09;63.55
48204;BME280;33994;50.998;5.864;2024-03-02T11:42:07;99537.38;;;10.13;63.65
48204;BME280;33994;50.998;5.864;2024-03-02T11:45:10;99530.97;;;10.21;63.44
48204;BME280;33994;50.998;5.864;2024-03-02T11:48:15;99512.47;;;10.28;63.34
48204;BME280;33994;50.998;5.864;2024-03-02T11:51:18;99509.75;;;10.31;63.09
48204;BME280;33994;50.998;5.864;2024-03-02T11:54:21;99505.19;;;10.37;62.97
48204;BME280;33994;50.998;5.864;2024-03-02T11:57:24;99499.72;;;10.43;62.78
48204;BME280;33994;50.998;5.864;2024-03-02T12:00:28;99500.38;;;10.50;62.72
48204;BME280;33994;50.998;5.864;2024-03-02T12:03:32;99486.06;;;10.60;62.90
48204;BME280;33994;50.998;5.864;2024-03-02T12:06:37;99486.69;;;10.67;62.86
48204;BME280;33994;50.998;5.864;2024-03-02T12:09:40;99480.22;;;10.77;62.14
48204;BME280;33994;50.998;5.864;2024-03-02T12:12:43;99476.44;;;10.86;62.56
48204;BME280;33994;50.998;5.864;2024-03-02T12:15:46;99478.63;;;10.97;62.57
48204;BME280;33994;50.998;5.864;2024-03-02T12:18:51;99460.16;;;11.01;62.13
48204;BME280;33994;50.998;5.864;2024-03-02T12:21:55;99461.59;;;11.10;61.47
48204;BME280;33994;50.998;5.864;2024-03-02T12:24:58;99463.22;;;11.12;61.25
48204;BME280;33994;50.998;5.864;2024-03-02T12:28:02;99462.00;;;11.21;61.25
48204;BME280;33994;50.998;5.864;2024-03-02T12:31:05;99458.22;;;11.28;60.85
48204;BME280;33994;50.998;5.864;2024-03-02T12:34:09;99458.84;;;11.35;60.73
48204;BME280;33994;50.998;5.864;2024-03-02T12:37:14;99452.44;;;11.42;60.55
48204;BME280;33994;50.998;5.864;2024-03-02T12:40:19;99452.22;;;11.48;60.92
48204;BME280;33994;50.998;5.864;2024-03-02T12:43:22;99456.25;;;11.55;60.78
48204;BME280;33994;50.998;5.864;2024-03-02T12:46:26;99455.19;;;11.61;60.67
48204;BME280;33994;50.998;5.864;2024-03-02T12:49:30;99461.06;;;11.66;60.64
48204;BME280;33994;50.998;5.864;2024-03-02T12:52:34;99447.84;;;11.69;60.50
48204;BME280;33994;50.998;5.864;2024-03-02T12:55:37;99446.03;;;11.71;60.22
48204;BME280;33994;50.998;5.864;2024-03-02T12:58:40;99451.00;;;11.77;60.45
48204;BME280;33994;50.998;5.864;2024-03-02T13:01:50;99450.81;;;11.82;60.08
48204;BME280;33994;50.998;5.864;2024-03-02T13:04:54;99437.47;;;11.88;60.39
48204;BME280;33994;50.998;5.864;2024-03-02T13:07:58;99437.38;;;11.89;60.26
48204;BME280;33994;50.998;5.864;2024-03-02T13:11:02;99433.78;;;11.92;60.27
48204;BME280;33994;50.998;5.864;2024-03-02T13:14:05;99435.56;;;11.91;59.79
48204;BME280;33994;50.998;5.864;2024-03-02T13:17:08;99432.94;;;11.91;59.90
48204;BME280;33994;50.998;5.864;2024-03-02T13:20:13;99450.34;;;11.92;59.91
48204;BME280;33994;50.998;5.864;2024-03-02T13:23:16;99438.06;;;11.95;60.13
48204;BME280;33994;50.998;5.864;2024-03-02T13:26:19;99424.03;;;11.96;59.85
48204;BME280;33994;50.998;5.864;2024-03-02T13:29:22;99429.28;;;11.96;59.77
48204;BME280;33994;50.998;5.864;2024-03-02T13:32:26;99425.72;;;11.97;59.74
48204;BME280;33994;50.998;5.864;2024-03-02T13:35:30;99434.38;;;11.99;59.67
48204;BME280;33994;50.998;5.864;2024-03-02T13:38:33;99422.25;;;11.96;59.27
48204;BME280;33994;50.998;5.864;2024-03-02T13:41:36;99417.81;;;11.98;59.33
48204;BME280;33994;50.998;5.864;2024-03-02T13:44:40;99416.03;;;11.99;59.28
48204;BME280;33994;50.998;5.864;2024-03-02T13:47:43;99430.72;;;12.03;59.44
48204;BME280;33994;50.998;5.864;2024-03-02T13:50:47;99408.81;;;12.04;59.15
48204;BME280;33994;50.998;5.864;2024-03-02T13:53:50;99405.94;;;12.10;59.37
48204;BME280;33994;50.998;5.864;2024-03-02T13:56:53;99403.03;;;12.16;59.27
48204;BME280;33994;50.998;5.864;2024-03-02T13:59:57;99395.91;;;12.20;58.78
48204;BME280;33994;50.998;5.864;2024-03-02T14:03:00;99404.38;;;12.26;58.97
48204;BME280;33994;50.998;5.864;2024-03-02T14:06:04;99393.78;;;12.29;59.43
48204;BME280;33994;50.998;5.864;2024-03-02T14:09:08;99400.66;;;12.32;59.91
48204;BME280;33994;50.998;5.864;2024-03-02T14:12:11;99400.66;;;12.32;59.11
48204;BME280;33994;50.998;5.864;2024-03-02T14:15:14;99411.47;;;12.24;58.88
48204;BME280;33994;50.998;5.864;2024-03-02T14:18:18;99399.31;;;12.22;59.17
48204;BME280;33994;50.998;5.864;2024-03-02T14:21:22;99405.50;;;12.21;59.25
48204;BME280;33994;50.998;5.864;2024-03-02T14:24:25;99398.47;;;12.21;59.21
48204;BME280;33994;50.998;5.864;2024-03-02T14:27:28;99390.44;;;12.26;59.10
48204;BME280;33994;50.998;5.864;2024-03-02T14:30:32;99395.59;;;12.27;58.97
48204;BME280;33994;50.998;5.864;2024-03-02T14:33:35;99392.06;;;12.28;59.01
48204;BME280;33994;50.998;5.864;2024-03-02T14:36:40;99387.59;;;12.30;59.43
48204;BME280;33994;50.998;5.864;2024-03-02T14:39:43;99387.47;;;12.33;59.65
48204;BME280;33994;50.998;5.864;2024-03-02T14:42:46;99386.50;;;12.36;59.62
48204;BME280;33994;50.998;5.864;2024-03-02T14:45:50;99387.25;;;12.38;59.74
48204;BME280;33994;50.998;5.864;2024-03-02T14:48:54;99384.50;;;12.41;59.95
48204;BME280;33994;50.998;5.864;2024-03-02T14:51:58;99385.22;;;12.45;60.18
48204;BME280;33994;50.998;5.864;2024-03-02T14:55:01;99384.28;;;12.46;60.40
48204;BME280;33994;50.998;5.864;2024-03-02T14:58:04;99384.22;;;12.47;60.73
48204;BME280;33994;50.998;5.864;2024-03-02T15:01:07;99378.91;;;12.49;60.81
48204;BME280;33994;50.998;5.864;2024-03-02T15:04:10;99379.84;;;12.48;60.98
48204;BME280;33994;50.998;5.864;2024-03-02T15:07:15;99377.25;;;12.46;60.99
48204;BME280;33994;50.998;5.864;2024-03-02T15:10:19;99383.34;;;12.47;61.12
48204;BME280;33994;50.998;5.864;2024-03-02T15:13:22;99390.47;;;12.45;61.51
48204;BME280;33994;50.998;5.864;2024-03-02T15:16:25;99380.09;;;12.41;60.04
48204;BME280;33994;50.998;5.864;2024-03-02T15:19:28;99380.22;;;12.38;59.81
48204;BME280;33994;50.998;5.864;2024-03-02T15:22:33;99372.59;;;12.34;59.87
48204;BME280;33994;50.998;5.864;2024-03-02T15:25:36;99377.09;;;12.30;60.10
48204;BME280;33994;50.998;5.864;2024-03-02T15:28:39;99384.22;;;12.28;60.37
48204;BME280;33994;50.998;5.864;2024-03-02T15:31:42;99379.19;;;12.22;60.68
48204;BME280;33994;50.998;5.864;2024-03-02T15:34:45;99375.94;;;12.17;60.37
48204;BME280;33994;50.998;5.864;2024-03-02T15:37:50;99376.06;;;12.14;60.36
48204;BME280;33994;50.998;5.864;2024-03-02T15:40:53;99366.69;;;12.08;60.42
48204;BME280;33994;50.998;5.864;2024-03-02T15:43:56;99377.25;;;12.07;60.37
48204;BME280;33994;50.998;5.864;2024-03-02T15:46:59;99364.28;;;12.04;60.67
48204;BME280;33994;50.998;5.864;2024-03-02T15:50:03;99362.59;;;12.03;60.85
48204;BME280;33994;50.998;5.864;2024-03-02T15:53:07;99355.66;;;12.02;60.99
48204;BME280;33994;50.998;5.864;2024-03-02T15:56:10;99357.44;;;12.01;61.12
48204;BME280;33994;50.998;5.864;2024-03-02T15:59:14;99348.69;;;12.01;61.19
48204;BME280;33994;50.998;5.864;2024-03-02T16:02:17;99334.81;;;11.99;61.15
48204;BME280;33994;50.998;5.864;2024-03-02T16:05:20;99336.66;;;11.97;61.35
48204;BME280;33994;50.998;5.864;2024-03-02T16:08:24;99337.66;;;11.94;61.40
48204;BME280;33994;50.998;5.864;2024-03-02T16:11:28;99336.00;;;11.91;61.69
48204;BME280;33994;50.998;5.864;2024-03-02T16:14:31;99340.44;;;11.89;61.70
48204;BME280;33994;50.998;5.864;2024-03-02T16:17:34;99335.38;;;11.86;61.69
48204;BME280;33994;50.998;5.864;2024-03-02T16:20:37;99334.56;;;11.84;62.09
48204;BME280;33994;50.998;5.864;2024-03-02T16:23:42;99330.25;;;11.83;62.40